Portada
METAR-TAF:

METAR-TAF

Aeroports :

Nörvenich, Alemanya

latitud: 50-50N, longitud: 006-40E, altitud: 118 m

Observació

L'informe es va fer fa 39 minuts, a les 22:20 UTC
Vent 1 kt del Sud-Est
Temperatura 18°C
Humitat 68%
Pressió 1019 hPa
Visibilitat: 8000 m

METAR: ETNN 242220Z AUTO 14001KT 8000 // ////// 18/12 Q1019 ///

Hora: 00:59 (22:59 UTC)


TAF: manca

Observacions i pronòstics meteorològics de més de 4000 aeroports (METAR i TAF).

Les estacions disponibles són els punts grocs i vermells al mapa.

Posi el ratolí al punt desitjat per veure el nom de l'estació.

Feu clic per veure les observacions i els pronòstics meteorològics.

Per canviar el mapa: feu clic els botons verds amb una creu de color negre per apropar; al botó verd amb un guió per allunyar la imatge; o en les fletxes verdes per a mapes adjacents.


METAR-TAF: